Wong Chuk Hang, Hong Kong

10:15 PM CST on December 27, 2014 (GMT +0800)
Quarry Bay School, Braemar Hill | Change Station
CLOSE
Current Station
Personal Weather Station
Location: Hong Kong Island, HONG KONG ISLAND
Elevation: 591 ft
Nearby Weather Stations

Elev 591 ft 22.28 °N, 114.20 °E | Updated 9 seconds ago

Light Drizzle
Light Drizzle
57.9 °F
Feels Like 57.9 °F
N
1.0
Wind Variable Wind from NNE
Gusts 3.0 mph

Today
High -- | Low -- °F
--% Chance of Precip.
Yesterday
High -- | Low -- °F
Precip. -- in
7:00 AM 5:47 PM
Waxing Crescent, 37% visible
Pressure 30.21 in
Visibility 3.1 miles
Clouds Few 1000 ft
Scattered Clouds 2500 ft
Dew Point 56 °F
Humidity 94%
Rainfall 0.00 in
Snow Depth Not available.
UV 0 out of 12
Pollen Not available.
Air Quality Not available.
Flu Activity Not available.
METAR VHHH 271400Z 04005KT 5000 -DZ FEW010 SCT025 15/14 Q1023 NOSIG

More Conditions Fewer Conditions

Pressure 30.21 in
Visibility 3.1 miles
Clouds Few 1000 ft
Scattered Clouds 2500 ft
Dew Point 56 °F
Humidity 94%
Rainfall 0.00 in
Snow Depth Not available.
UV 0 out of 12
Pollen Not available.
Air Quality Not available.
Flu Activity Not available.
METAR VHHH 271400Z 04005KT 5000 -DZ FEW010 SCT025 15/14 Q1023 NOSIG

More Conditions Fewer Conditions

10-Day Weather Forecast

Almanac

Astronomy

Dec. 27, 2014 Rise Set
Actual Time
Civil Twilight
Nautical Twilight
Astronomical Twilight
Moon
Length of Visible Light
Length of Day
Tomorrow will be .
, % of the Moon is Illuminated

Today's Extremes

Country Highs Country Lows

Community

WunderPhotos

Upload Photos

1,780,909 photos uploaded!

WunderBlogs® & News

Nearby

Air Quality

  Air Quality AQ Index Pollutant
Not available.

Snow Depth

Station Depth Elevation

Earthquake Activity

City Distance Mag. Time & Date
Minimum magnitude displayed is 2.5.

Coastal Water Temperatures

Place Temperature

Nearby Weather Stations